createdAt,value
2019-01-09T00:00:39.523Z,18.50
2019-01-09T00:01:39.513Z,19.40
2019-01-09T00:02:39.538Z,18.00
2019-01-09T00:03:39.544Z,18.00
2019-01-09T00:04:39.479Z,14.90
2019-01-09T00:05:39.470Z,20.80
2019-01-09T00:06:39.457Z,17.10
2019-01-09T00:07:39.446Z,15.80
2019-01-09T00:08:39.434Z,18.10
2019-01-09T00:09:39.469Z,15.90
2019-01-09T00:10:39.414Z,20.40
2019-01-09T00:11:39.403Z,19.70
2019-01-09T00:12:39.391Z,15.60
2019-01-09T00:13:39.380Z,16.80
2019-01-09T00:14:39.370Z,20.60
2019-01-09T00:15:39.404Z,16.80
2019-01-09T00:16:39.402Z,19.40
2019-01-09T00:17:39.337Z,17.30
2019-01-09T00:18:39.325Z,14.60
2019-01-09T00:19:39.314Z,15.10
2019-01-09T00:20:39.303Z,20.60
2019-01-09T00:21:39.345Z,20.20
2019-01-09T00:22:39.309Z,17.10
2019-01-09T00:23:39.270Z,17.30
2019-01-09T00:24:39.260Z,16.60
2019-01-09T00:25:39.249Z,17.70
2019-01-09T00:26:39.238Z,19.80
2019-01-09T00:27:39.275Z,18.80
2019-01-09T00:28:39.264Z,17.30
2019-01-09T00:29:39.245Z,17.60
2019-01-09T00:30:39.195Z,17.20
2019-01-09T00:31:39.184Z,19.50
2019-01-09T00:32:39.233Z,18.40
2019-01-09T00:33:39.161Z,18.80
2019-01-09T00:34:39.189Z,15.40
2019-01-09T00:35:39.138Z,16.00
2019-01-09T00:36:39.127Z,12.70
2019-01-09T00:37:39.116Z,18.10
2019-01-09T00:38:40.599Z,18.10
2019-01-09T00:39:39.098Z,12.60
2019-01-09T00:40:39.135Z,18.40
2019-01-09T00:41:39.074Z,11.30
2019-01-09T00:42:39.060Z,18.70
2019-01-09T00:43:39.049Z,19.10
2019-01-09T00:44:39.081Z,18.70
2019-01-09T00:45:39.030Z,19.40
2019-01-09T00:46:39.017Z,18.20
2019-01-09T00:47:39.005Z,22.70
2019-01-09T00:48:38.994Z,14.60
2019-01-09T00:49:38.983Z,19.00
2019-01-09T00:50:39.013Z,18.40
2019-01-09T00:51:38.961Z,20.80
2019-01-09T00:52:38.952Z,18.80
2019-01-09T00:53:38.981Z,17.20
2019-01-09T00:54:38.929Z,14.80
2019-01-09T00:55:38.916Z,22.50
2019-01-09T00:56:38.905Z,18.40
2019-01-09T00:57:38.895Z,19.70
2019-01-09T00:58:38.883Z,14.90
2019-01-09T00:59:38.914Z,18.00
2019-01-09T01:00:38.861Z,25.20
2019-01-09T01:01:38.893Z,19.40
2019-01-09T01:02:38.839Z,22.20
2019-01-09T01:03:38.828Z,25.80
2019-01-09T01:04:38.824Z,20.40
2019-01-09T01:05:46.000Z,21.60
2019-01-09T01:06:39.843Z,23.30
2019-01-09T01:07:38.825Z,23.60
2019-01-09T01:08:38.774Z,22.10
2019-01-09T01:09:38.767Z,17.50
2019-01-09T01:10:38.751Z,24.70
2019-01-09T01:11:38.741Z,26.40
2019-01-09T01:12:38.776Z,20.40
2019-01-09T01:13:38.721Z,24.80
2019-01-09T01:14:38.708Z,16.50
2019-01-09T01:15:38.696Z,20.30
2019-01-09T01:16:38.685Z,26.60
2019-01-09T01:17:38.674Z,25.40
2019-01-09T01:18:38.712Z,27.00
2019-01-09T01:19:38.654Z,21.40
2019-01-09T01:20:38.642Z,24.90
2019-01-09T01:21:38.639Z,30.40
2019-01-09T01:22:38.617Z,22.80
2019-01-09T01:23:38.611Z,28.50
2019-01-09T01:24:38.643Z,19.90
2019-01-09T01:25:38.586Z,26.90
2019-01-09T01:26:38.575Z,30.80
2019-01-09T01:27:38.564Z,27.10
2019-01-09T01:28:38.556Z,33.20
2019-01-09T01:29:38.543Z,26.50
2019-01-09T01:30:38.574Z,30.70
2019-01-09T01:31:38.521Z,31.80
2019-01-09T01:32:38.509Z,25.50
2019-01-09T01:33:38.497Z,25.10
2019-01-09T01:34:38.519Z,28.70
2019-01-09T01:35:38.541Z,31.80
2019-01-09T01:36:38.557Z,29.80
2019-01-09T01:37:38.453Z,20.60
2019-01-09T01:38:38.441Z,17.90
2019-01-09T01:39:38.472Z,27.40
2019-01-09T01:40:38.469Z,24.40
2019-01-09T01:41:38.409Z,26.30
2019-01-09T01:42:38.404Z,26.40
2019-01-09T01:43:38.388Z,21.30
2019-01-09T01:44:38.378Z,26.80
2019-01-09T01:45:38.365Z,25.60
2019-01-09T01:46:38.395Z,20.60
2019-01-09T01:47:38.343Z,25.60
2019-01-09T01:48:38.383Z,22.50
2019-01-09T01:49:38.323Z,22.80
2019-01-09T01:50:38.309Z,23.20
2019-01-09T01:51:38.299Z,19.90
2019-01-09T01:52:38.288Z,18.70
2019-01-09T01:53:38.277Z,20.10
2019-01-09T01:54:38.310Z,21.10
2019-01-09T01:55:38.263Z,17.50
2019-01-09T01:56:38.247Z,20.50
2019-01-09T01:57:38.233Z,13.90
2019-01-09T01:58:38.263Z,22.80
2019-01-09T01:59:38.213Z,22.90
2019-01-09T02:00:38.241Z,21.50
2019-01-09T02:01:38.190Z,24.60
2019-01-09T02:02:38.221Z,26.20
2019-01-09T02:03:38.166Z,22.90
2019-01-09T02:04:38.235Z,25.30
2019-01-09T02:05:38.149Z,15.50
2019-01-09T02:06:38.134Z,19.50
2019-01-09T02:07:38.122Z,20.10
2019-01-09T02:08:38.157Z,19.80
2019-01-09T02:09:38.100Z,23.00
2019-01-09T02:10:38.091Z,27.20
2019-01-09T02:11:38.086Z,25.30
2019-01-09T02:12:38.069Z,21.90
2019-01-09T02:13:38.056Z,16.80
2019-01-09T02:14:38.089Z,25.40
2019-01-09T02:15:38.077Z,27.50
2019-01-09T02:16:38.023Z,23.00
2019-01-09T02:17:38.014Z,23.80
2019-01-09T02:18:38.049Z,23.80
2019-01-09T02:19:38.032Z,25.00
2019-01-09T02:20:37.980Z,27.30
2019-01-09T02:21:38.010Z,30.40
2019-01-09T02:22:37.958Z,21.80
2019-01-09T02:23:37.947Z,19.90
2019-01-09T02:24:37.935Z,23.50
2019-01-09T02:25:37.925Z,22.90
2019-01-09T02:26:37.913Z,29.00
2019-01-09T02:27:37.949Z,29.50
2019-01-09T02:28:37.892Z,26.30
2019-01-09T02:29:37.880Z,26.20
2019-01-09T02:30:37.870Z,26.50
2019-01-09T02:31:37.858Z,23.90
2019-01-09T02:32:37.848Z,22.40
2019-01-09T02:33:37.874Z,23.60
2019-01-09T02:34:37.833Z,27.30
2019-01-09T02:35:37.820Z,17.00
2019-01-09T02:36:37.802Z,23.10
2019-01-09T02:37:37.836Z,17.00
2019-01-09T02:38:37.781Z,24.00
2019-01-09T02:39:37.788Z,26.30
2019-01-09T02:40:37.760Z,19.90
2019-01-09T02:41:37.794Z,25.90
2019-01-09T02:42:37.736Z,25.00
2019-01-09T02:43:37.773Z,25.20
2019-01-09T02:44:37.713Z,22.70
2019-01-09T02:45:37.796Z,16.00
2019-01-09T02:46:37.693Z,24.20
2019-01-09T02:47:37.723Z,22.00
2019-01-09T02:48:37.678Z,24.10
2019-01-09T02:49:37.690Z,19.50
2019-01-09T02:50:37.653Z,19.40
2019-01-09T02:51:37.640Z,21.00
2019-01-09T02:52:37.626Z,26.10
2019-01-09T02:53:37.658Z,21.80
2019-01-09T02:54:37.606Z,19.00
2019-01-09T02:55:37.606Z,19.40
2019-01-09T02:56:37.584Z,22.50
2019-01-09T02:57:37.583Z,20.70
2019-01-09T02:58:37.560Z,25.00
2019-01-09T02:59:37.595Z,15.80
2019-01-09T03:00:37.542Z,21.90
2019-01-09T03:01:37.527Z,21.50
2019-01-09T03:02:37.519Z,22.60
2019-01-09T03:03:37.552Z,23.10
2019-01-09T03:04:37.545Z,21.40
2019-01-09T03:05:37.485Z,24.30
2019-01-09T03:06:37.476Z,21.20
2019-01-09T03:07:37.463Z,20.70
2019-01-09T03:08:37.453Z,22.10
2019-01-09T03:09:37.443Z,23.00
2019-01-09T03:10:37.486Z,17.60
2019-01-09T03:11:37.462Z,17.00
2019-01-09T03:12:37.406Z,21.80
2019-01-09T03:13:37.397Z,21.00
2019-01-09T03:14:37.384Z,20.90
2019-01-09T03:15:37.374Z,15.40
2019-01-09T03:16:37.362Z,20.90
2019-01-09T03:17:37.390Z,20.90
2019-01-09T03:18:37.380Z,22.90
2019-01-09T03:19:37.330Z,19.40
2019-01-09T03:20:37.325Z,24.00
2019-01-09T03:21:37.307Z,25.50
2019-01-09T03:22:37.345Z,18.50
2019-01-09T03:23:37.291Z,23.00
2019-01-09T03:24:37.286Z,17.20
2019-01-09T03:25:37.272Z,24.70
2019-01-09T03:26:37.257Z,19.50
2019-01-09T03:27:37.242Z,22.60
2019-01-09T03:28:37.280Z,17.80
2019-01-09T03:29:37.221Z,25.10
2019-01-09T03:30:37.398Z,19.50
2019-01-09T03:31:37.200Z,15.40
2019-01-09T03:32:37.188Z,17.90
2019-01-09T03:33:37.221Z,20.90
2019-01-09T03:34:37.166Z,21.90
2019-01-09T03:35:37.155Z,22.30
2019-01-09T03:36:37.145Z,23.40
2019-01-09T03:37:37.132Z,23.90
2019-01-09T03:38:37.121Z,30.00
2019-01-09T03:39:37.164Z,24.40
2019-01-09T03:40:37.107Z,19.80
2019-01-09T03:41:37.131Z,16.80
2019-01-09T03:42:37.077Z,17.00
2019-01-09T03:43:37.107Z,17.70
2019-01-09T03:44:37.053Z,16.20
2019-01-09T03:45:37.054Z,17.90
2019-01-09T03:46:37.186Z,20.30
2019-01-09T03:47:37.023Z,17.40
2019-01-09T03:48:37.053Z,22.90
2019-01-09T03:49:37.037Z,17.50
2019-01-09T03:50:36.987Z,22.20
2019-01-09T03:51:36.977Z,17.40
2019-01-09T03:52:37.011Z,17.70
2019-01-09T03:53:36.958Z,16.70
2019-01-09T03:54:36.943Z,18.20
2019-01-09T03:55:36.972Z,20.80
2019-01-09T03:56:36.921Z,17.80
2019-01-09T03:57:36.912Z,18.70
2019-01-09T03:58:36.942Z,19.80
2019-01-09T03:59:36.890Z,18.00
2019-01-09T04:00:36.884Z,26.40
2019-01-09T04:01:37.488Z,22.90
2019-01-09T04:02:36.855Z,19.30
2019-01-09T04:03:36.847Z,18.80
2019-01-09T04:04:36.875Z,18.30
2019-01-09T04:05:36.821Z,18.20
2019-01-09T04:06:41.765Z,16.90
2019-01-09T04:07:37.799Z,18.10
2019-01-09T04:08:36.789Z,19.40
2019-01-09T04:09:36.784Z,22.10
2019-01-09T04:10:36.816Z,17.40
2019-01-09T04:11:36.755Z,21.40
2019-01-09T04:12:36.744Z,21.00
2019-01-09T04:13:36.735Z,22.40
2019-01-09T04:14:36.723Z,17.70
2019-01-09T04:15:36.711Z,24.20
2019-01-09T04:16:36.749Z,22.30
2019-01-09T04:17:36.692Z,18.60
2019-01-09T04:18:36.680Z,15.00
2019-01-09T04:19:36.668Z,13.80
2019-01-09T04:20:36.663Z,17.80
2019-01-09T04:21:36.646Z,20.00
2019-01-09T04:22:36.680Z,18.60
2019-01-09T04:23:36.622Z,17.70
2019-01-09T04:24:36.657Z,23.60
2019-01-09T04:25:36.603Z,15.60
2019-01-09T04:26:36.592Z,20.00
2019-01-09T04:27:36.581Z,17.60
2019-01-09T04:28:36.568Z,15.50
2019-01-09T04:29:36.558Z,18.00
2019-01-09T04:30:36.588Z,17.60
2019-01-09T04:31:36.537Z,19.90
2019-01-09T04:32:36.528Z,14.90
2019-01-09T04:33:36.517Z,12.30
2019-01-09T04:34:36.504Z,16.10
2019-01-09T04:35:36.494Z,19.30
2019-01-09T04:36:36.535Z,19.90
2019-01-09T04:37:36.472Z,13.10
2019-01-09T04:38:36.462Z,16.20
2019-01-09T04:39:36.499Z,16.50
2019-01-09T04:40:36.440Z,13.80
2019-01-09T04:41:36.472Z,13.50
2019-01-09T04:42:36.420Z,12.10
2019-01-09T04:43:36.443Z,15.10
2019-01-09T04:44:36.393Z,14.80
2019-01-09T04:45:36.383Z,15.50
2019-01-09T04:46:36.426Z,18.00
2019-01-09T04:47:36.360Z,15.40
2019-01-09T04:48:36.348Z,14.10
2019-01-09T04:49:36.338Z,11.20
2019-01-09T04:50:36.328Z,14.40
2019-01-09T04:51:36.354Z,17.80
2019-01-09T04:52:36.305Z,8.80
2019-01-09T04:53:36.294Z,16.20
2019-01-09T04:54:36.287Z,12.70
2019-01-09T04:55:36.274Z,14.20
2019-01-09T04:56:36.309Z,13.10
2019-01-09T04:57:36.251Z,17.10
2019-01-09T04:58:36.303Z,14.60
2019-01-09T04:59:36.230Z,15.10
2019-01-09T05:00:36.221Z,16.00
2019-01-09T05:01:36.205Z,16.00
2019-01-09T05:02:36.198Z,18.00
2019-01-09T05:03:36.224Z,12.30
2019-01-09T05:04:36.177Z,12.50
2019-01-09T05:05:36.163Z,11.90
2019-01-09T05:06:36.175Z,11.20
2019-01-09T05:07:36.140Z,14.10
2019-01-09T05:08:36.171Z,12.10
2019-01-09T05:09:36.121Z,12.50
2019-01-09T05:10:36.112Z,13.10
2019-01-09T05:11:36.096Z,14.30
2019-01-09T05:12:36.086Z,12.70
2019-01-09T05:13:36.117Z,13.00
2019-01-09T05:14:36.063Z,9.70
2019-01-09T05:15:36.051Z,11.10
2019-01-09T05:16:36.096Z,5.50
2019-01-09T05:17:36.031Z,8.90
2019-01-09T05:18:36.023Z,7.60
2019-01-09T05:19:36.010Z,11.10
2019-01-09T05:20:36.085Z,5.50
2019-01-09T05:21:35.988Z,6.10
2019-01-09T05:22:36.016Z,5.70
2019-01-09T05:23:36.014Z,6.30
2019-01-09T05:24:35.954Z,10.40
2019-01-09T05:25:35.945Z,6.40
2019-01-09T05:26:35.935Z,7.10
2019-01-09T05:27:35.919Z,5.30
2019-01-09T05:28:35.949Z,8.20
2019-01-09T05:29:35.940Z,4.50
2019-01-09T05:30:36.603Z,9.00
2019-01-09T05:31:35.874Z,10.60
2019-01-09T05:32:35.864Z,8.40
2019-01-09T05:33:35.853Z,8.00
2019-01-09T05:34:35.843Z,6.60
2019-01-09T05:35:35.878Z,6.30
2019-01-09T05:36:35.829Z,10.60
2019-01-09T05:37:35.810Z,10.60
2019-01-09T05:38:35.799Z,10.20
2019-01-09T05:39:39.758Z,11.80
2019-01-09T05:40:35.822Z,5.70
2019-01-09T05:41:35.766Z,5.70
2019-01-09T05:42:35.756Z,6.70
2019-01-09T05:43:35.743Z,8.30
2019-01-09T05:44:35.734Z,7.50
2019-01-09T05:45:35.769Z,10.40
2019-01-09T05:46:35.711Z,8.60
2019-01-09T05:47:35.699Z,9.60
2019-01-09T05:48:35.729Z,6.60
2019-01-09T05:49:35.679Z,7.30
2019-01-09T05:50:35.666Z,7.00
2019-01-09T05:51:35.697Z,7.30
2019-01-09T05:52:35.643Z,11.80
2019-01-09T05:53:35.633Z,10.80
2019-01-09T05:54:35.620Z,13.10
2019-01-09T05:55:35.612Z,10.30
2019-01-09T05:56:35.599Z,14.60
2019-01-09T05:57:35.988Z,11.30
2019-01-09T05:58:35.577Z,11.10
2019-01-09T05:59:35.567Z,9.00
2019-01-09T06:00:35.599Z,12.70
2019-01-09T06:01:35.583Z,10.20
2019-01-09T06:02:35.539Z,10.90
2019-01-09T06:03:35.592Z,14.30
2019-01-09T06:04:35.511Z,13.10
2019-01-09T06:05:35.501Z,12.80
2019-01-09T06:06:35.515Z,9.50
2019-01-09T06:07:35.486Z,13.00
2019-01-09T06:08:35.807Z,13.40
2019-01-09T06:09:35.510Z,11.50
2019-01-09T06:10:35.448Z,14.40
2019-01-09T06:11:35.436Z,13.10
2019-01-09T06:12:35.428Z,14.90
2019-01-09T06:13:35.470Z,16.30
2019-01-09T06:14:35.415Z,14.00
2019-01-09T06:15:35.396Z,10.20
2019-01-09T06:16:35.393Z,9.90
2019-01-09T06:17:35.371Z,11.50
2019-01-09T06:18:35.357Z,7.20
2019-01-09T06:19:35.393Z,6.70
2019-01-09T06:20:35.343Z,6.60
2019-01-09T06:21:35.332Z,5.40
2019-01-09T06:22:35.357Z,5.30
2019-01-09T06:23:35.302Z,2.90
2019-01-09T06:24:35.295Z,2.20
2019-01-09T06:25:35.291Z,5.80
2019-01-09T06:26:35.289Z,5.70
2019-01-09T06:27:35.259Z,5.70
2019-01-09T06:28:35.311Z,3.20
2019-01-09T06:29:35.238Z,5.10
2019-01-09T06:30:35.241Z,5.10
2019-01-09T06:31:35.223Z,8.10
2019-01-09T06:32:35.205Z,5.20
2019-01-09T06:33:35.218Z,4.30
2019-01-09T06:34:35.234Z,4.00
2019-01-09T06:35:35.186Z,5.60
2019-01-09T06:36:35.160Z,9.00
2019-01-09T06:37:35.207Z,4.30
2019-01-09T06:38:35.141Z,6.00
2019-01-09T06:39:35.129Z,6.70
2019-01-09T06:40:35.117Z,3.10
2019-01-09T06:41:35.110Z,5.50
2019-01-09T06:42:35.104Z,8.20
2019-01-09T06:43:35.131Z,3.20
2019-01-09T06:44:35.090Z,8.60
2019-01-09T06:45:35.059Z,2.20
2019-01-09T06:46:35.053Z,4.00
2019-01-09T06:47:35.040Z,2.70
2019-01-09T06:48:35.031Z,4.00
2019-01-09T06:49:35.059Z,3.10
2019-01-09T06:50:35.009Z,3.30
2019-01-09T06:51:34.995Z,3.20
2019-01-09T06:52:34.985Z,2.80
2019-01-09T06:53:35.018Z,3.80
2019-01-09T06:54:34.986Z,3.00
2019-01-09T06:55:35.004Z,2.70
2019-01-09T06:56:34.952Z,4.00
2019-01-09T06:57:34.932Z,2.80
2019-01-09T06:58:34.960Z,3.20
2019-01-09T06:59:35.022Z,3.80
2019-01-09T07:00:34.946Z,2.90
2019-01-09T07:01:34.892Z,4.10
2019-01-09T07:02:34.889Z,3.80
2019-01-09T07:03:34.866Z,3.80
2019-01-09T07:04:34.914Z,2.20
2019-01-09T07:05:34.843Z,3.50
2019-01-09T07:06:34.859Z,2.30
2019-01-09T07:07:36.179Z,4.90
2019-01-09T07:08:35.000Z,1.70
2019-01-09T07:09:34.835Z,2.60
2019-01-09T07:10:34.912Z,3.00
2019-01-09T07:11:34.791Z,0.90
2019-01-09T07:12:34.807Z,3.20
2019-01-09T07:13:34.772Z,3.40
2019-01-09T07:14:34.754Z,2.80
2019-01-09T07:15:34.786Z,1.90
2019-01-09T07:16:34.835Z,2.60
2019-01-09T07:17:34.764Z,5.40
2019-01-09T07:18:34.874Z,4.90
2019-01-09T07:19:34.706Z,4.00
2019-01-09T07:20:34.707Z,6.30
2019-01-09T07:21:34.679Z,2.80
2019-01-09T07:22:34.660Z,4.50
2019-01-09T07:23:35.684Z,4.50
2019-01-09T07:24:34.872Z,3.30
2019-01-09T07:25:34.690Z,2.50
2019-01-09T07:26:34.678Z,4.10
2019-01-09T07:27:34.647Z,4.00
2019-01-09T07:28:34.632Z,9.30
2019-01-09T07:29:34.656Z,7.00
2019-01-09T07:30:34.595Z,4.60
2019-01-09T07:31:34.622Z,4.80
2019-01-09T07:32:34.564Z,4.90
2019-01-09T07:33:34.538Z,4.50
2019-01-09T07:34:34.532Z,4.70
2019-01-09T07:35:34.557Z,6.30
2019-01-09T07:36:34.529Z,5.90
2019-01-09T07:37:34.501Z,6.10
2019-01-09T07:38:34.479Z,9.20
2019-01-09T07:39:34.479Z,7.70
2019-01-09T07:40:34.536Z,7.90
2019-01-09T07:41:34.501Z,11.60
2019-01-09T07:42:34.444Z,9.30
2019-01-09T07:43:34.443Z,8.60
2019-01-09T07:44:34.428Z,7.50
2019-01-09T07:45:34.457Z,15.80
2019-01-09T07:46:34.410Z,12.30
2019-01-09T07:47:34.380Z,13.50
2019-01-09T07:48:34.369Z,11.20
2019-01-09T07:49:34.379Z,15.90
2019-01-09T07:50:34.351Z,13.00
2019-01-09T07:51:34.383Z,17.00
2019-01-09T07:52:34.326Z,16.30
2019-01-09T07:53:34.314Z,17.60
2019-01-09T07:54:34.312Z,16.20
2019-01-09T07:55:34.375Z,18.80
2019-01-09T07:56:34.295Z,19.70
2019-01-09T07:57:34.283Z,19.00
2019-01-09T07:58:34.310Z,18.70
2019-01-09T07:59:34.296Z,14.90
2019-01-09T08:00:34.256Z,21.00
2019-01-09T08:01:34.271Z,19.60
2019-01-09T08:02:34.212Z,18.80
2019-01-09T08:03:34.251Z,21.20
2019-01-09T08:04:34.197Z,19.30
2019-01-09T08:05:34.195Z,21.90
2019-01-09T08:06:34.175Z,19.00
2019-01-09T08:07:34.159Z,16.60
2019-01-09T08:08:34.150Z,15.30
2019-01-09T08:09:34.199Z,22.20
2019-01-09T08:10:34.130Z,18.20
2019-01-09T08:11:34.127Z,18.60
2019-01-09T08:12:34.127Z,21.40
2019-01-09T08:13:34.106Z,19.80
2019-01-09T08:14:34.084Z,17.70
2019-01-09T08:15:34.129Z,23.20
2019-01-09T08:16:34.091Z,19.50
2019-01-09T08:17:34.058Z,16.10
2019-01-09T08:18:34.045Z,14.90
2019-01-09T08:19:34.026Z,18.40
2019-01-09T08:20:34.024Z,17.70
2019-01-09T08:21:34.062Z,12.70
2019-01-09T08:22:33.999Z,15.70
2019-01-09T08:23:33.982Z,22.10
2019-01-09T08:24:33.983Z,15.20
2019-01-09T08:25:33.962Z,19.70
2019-01-09T08:26:33.977Z,13.50
2019-01-09T08:27:33.999Z,13.60
2019-01-09T08:28:33.934Z,14.50
2019-01-09T08:29:33.921Z,10.10
2019-01-09T08:30:33.926Z,13.20
2019-01-09T08:31:33.915Z,17.50
2019-01-09T08:32:33.895Z,16.90
2019-01-09T08:33:33.923Z,15.60
2019-01-09T08:34:33.870Z,16.80
2019-01-09T08:35:33.854Z,14.70
2019-01-09T08:36:33.893Z,17.30
2019-01-09T08:37:33.839Z,14.10
2019-01-09T08:38:33.824Z,17.10
2019-01-09T08:39:33.852Z,14.80
2019-01-09T08:40:33.802Z,16.00
2019-01-09T08:41:33.791Z,14.80
2019-01-09T08:42:33.835Z,19.20
2019-01-09T08:43:33.764Z,20.10
2019-01-09T08:44:33.753Z,15.90
2019-01-09T08:45:33.751Z,14.60
2019-01-09T08:46:33.734Z,14.30
2019-01-09T08:47:33.715Z,22.70
2019-01-09T08:48:33.754Z,20.20
2019-01-09T08:49:33.696Z,16.60
2019-01-09T08:50:33.683Z,17.30
2019-01-09T08:51:33.687Z,20.70
2019-01-09T08:52:33.681Z,20.80
2019-01-09T08:53:33.670Z,23.30
2019-01-09T08:54:33.693Z,16.90
2019-01-09T08:55:33.634Z,17.10
2019-01-09T08:56:33.619Z,20.90
2019-01-09T08:57:33.607Z,17.90
2019-01-09T08:58:33.608Z,22.40
2019-01-09T08:59:33.635Z,18.90
2019-01-09T09:00:33.578Z,22.50
2019-01-09T09:01:33.569Z,21.90
2019-01-09T09:02:33.563Z,20.20
2019-01-09T09:03:33.550Z,22.70
2019-01-09T09:04:33.533Z,25.60
2019-01-09T09:05:33.585Z,22.10
2019-01-09T09:06:33.521Z,17.70
2019-01-09T09:07:33.497Z,18.40
2019-01-09T09:08:33.507Z,24.20
2019-01-09T09:09:33.486Z,19.50
2019-01-09T09:10:33.471Z,20.20
2019-01-09T09:11:33.492Z,20.00
2019-01-09T09:12:33.486Z,20.90
2019-01-09T09:13:33.434Z,17.40
2019-01-09T09:14:33.420Z,18.00
2019-01-09T09:15:33.410Z,16.30
2019-01-09T09:16:36.843Z,17.70
2019-01-09T09:17:33.443Z,18.90
2019-01-09T09:18:33.376Z,22.50
2019-01-09T09:19:33.365Z,16.70
2019-01-09T09:20:33.356Z,21.40
2019-01-09T09:21:33.339Z,20.90
2019-01-09T09:22:33.385Z,17.20
2019-01-09T09:23:33.328Z,21.00
2019-01-09T09:24:33.360Z,22.90
2019-01-09T09:25:33.296Z,19.90
2019-01-09T09:26:33.288Z,22.30
2019-01-09T09:27:33.277Z,24.60
2019-01-09T09:28:33.270Z,25.80
2019-01-09T09:29:33.255Z,22.00
2019-01-09T09:30:33.286Z,19.50
2019-01-09T09:31:33.245Z,21.30
2019-01-09T09:32:33.222Z,17.10
2019-01-09T09:33:33.214Z,15.30
2019-01-09T09:34:33.203Z,14.00
2019-01-09T09:35:33.261Z,25.40
2019-01-09T09:36:33.180Z,24.40
2019-01-09T09:37:33.175Z,19.40
2019-01-09T09:38:33.175Z,24.10
2019-01-09T09:39:33.153Z,18.70
2019-01-09T09:40:33.181Z,18.80
2019-01-09T09:41:33.210Z,25.00
2019-01-09T09:42:33.112Z,29.00
2019-01-09T09:43:33.110Z,22.00
2019-01-09T09:44:33.090Z,22.90
2019-01-09T09:45:33.080Z,22.40
2019-01-09T09:46:33.087Z,27.60
2019-01-09T09:47:33.104Z,23.70
2019-01-09T09:48:33.050Z,22.10
2019-01-09T09:49:33.045Z,15.80
2019-01-09T09:50:33.070Z,16.40
2019-01-09T09:51:33.015Z,18.80
2019-01-09T09:52:32.999Z,15.50
2019-01-09T09:53:32.988Z,15.30
2019-01-09T09:54:32.990Z,17.60
2019-01-09T09:55:32.975Z,20.00
2019-01-09T09:56:33.014Z,20.00
2019-01-09T09:57:32.950Z,18.20
2019-01-09T09:58:32.939Z,23.40
2019-01-09T09:59:32.977Z,19.50
2019-01-09T10:00:32.964Z,18.40
2019-01-09T10:01:32.903Z,21.80
2019-01-09T10:02:32.890Z,18.20
2019-01-09T10:03:32.881Z,18.70
2019-01-09T10:04:32.868Z,21.40
2019-01-09T10:05:32.905Z,20.00
2019-01-09T10:06:32.849Z,15.80
2019-01-09T10:07:32.888Z,18.70
2019-01-09T10:08:32.889Z,19.50
2019-01-09T10:09:32.814Z,14.90
2019-01-09T10:10:32.850Z,15.10
2019-01-09T10:11:32.808Z,15.30
2019-01-09T10:12:32.781Z,21.60
2019-01-09T10:13:32.817Z,15.10
2019-01-09T10:14:32.771Z,20.30
2019-01-09T10:15:32.775Z,15.70
2019-01-09T10:16:32.815Z,18.10
2019-01-09T10:17:32.745Z,19.30
2019-01-09T10:18:32.712Z,13.60
2019-01-09T10:19:32.717Z,20.40
2019-01-09T10:20:32.693Z,16.40
2019-01-09T10:21:32.981Z,17.30
2019-01-09T10:22:32.787Z,20.40
2019-01-09T10:23:32.737Z,17.90
2019-01-09T10:24:32.656Z,12.30
2019-01-09T10:25:32.655Z,16.50
2019-01-09T10:26:32.727Z,17.10
2019-01-09T10:27:32.691Z,16.90
2019-01-09T10:28:32.610Z,24.80
2019-01-09T10:29:32.603Z,17.20
2019-01-09T10:30:32.595Z,19.20
2019-01-09T10:31:32.656Z,21.90
2019-01-09T10:32:32.562Z,16.10
2019-01-09T10:33:32.556Z,15.00
2019-01-09T10:34:32.558Z,15.60
2019-01-09T10:35:32.541Z,13.20
2019-01-09T10:36:32.526Z,17.00
2019-01-09T10:37:32.566Z,16.10
2019-01-09T10:38:37.954Z,17.80
2019-01-09T10:39:33.697Z,19.20
2019-01-09T10:40:36.310Z,16.40
2019-01-09T10:41:32.526Z,20.60
2019-01-09T10:42:32.451Z,17.00
2019-01-09T10:43:32.441Z,17.90
2019-01-09T10:44:34.563Z,15.00
2019-01-09T10:45:32.604Z,13.60
2019-01-09T10:46:32.501Z,16.10
2019-01-09T10:47:32.411Z,15.00
2019-01-09T10:48:32.450Z,16.90
2019-01-09T10:49:32.379Z,15.30
2019-01-09T10:50:32.372Z,19.40
2019-01-09T10:51:32.408Z,19.20
2019-01-09T10:52:32.344Z,17.80
2019-01-09T10:53:32.340Z,12.40
2019-01-09T10:54:32.329Z,18.60
2019-01-09T10:55:32.315Z,21.50
2019-01-09T10:56:32.305Z,14.60
2019-01-09T10:57:32.355Z,17.00
2019-01-09T10:58:32.330Z,23.30
2019-01-09T10:59:32.390Z,16.40
2019-01-09T11:00:32.307Z,17.30
2019-01-09T11:01:32.288Z,21.50
2019-01-09T11:02:32.372Z,19.00
2019-01-09T11:03:32.223Z,19.20
2019-01-09T11:04:32.227Z,16.90
2019-01-09T11:05:32.208Z,19.30
2019-01-09T11:06:32.194Z,20.60
2019-01-09T11:07:32.232Z,14.80
2019-01-09T11:08:32.177Z,18.00
2019-01-09T11:09:32.247Z,18.60
2019-01-09T11:10:32.156Z,16.80
2019-01-09T11:11:32.157Z,21.50
2019-01-09T11:12:32.131Z,13.70
2019-01-09T11:13:32.174Z,17.70
2019-01-09T11:14:32.100Z,17.60
2019-01-09T11:15:32.097Z,17.00
2019-01-09T11:16:32.079Z,18.00
2019-01-09T11:17:32.079Z,19.20
2019-01-09T11:18:32.098Z,19.20
2019-01-09T11:19:32.057Z,17.10
2019-01-09T11:20:32.041Z,22.80
2019-01-09T11:21:32.027Z,17.70
2019-01-09T11:22:32.061Z,18.40
2019-01-09T11:23:32.024Z,22.80
2019-01-09T11:24:31.997Z,16.90
2019-01-09T11:25:32.021Z,18.00
2019-01-09T11:26:31.975Z,20.50
2019-01-09T11:27:32.156Z,19.40
2019-01-09T11:28:32.046Z,15.40
2019-01-09T11:29:31.989Z,14.50
2019-01-09T11:30:31.977Z,16.90
2019-01-09T11:31:31.927Z,21.10
2019-01-09T11:32:31.916Z,14.90
2019-01-09T11:33:31.896Z,17.00
2019-01-09T11:34:31.885Z,14.40
2019-01-09T11:35:31.917Z,16.30
2019-01-09T11:36:31.919Z,18.50
2019-01-09T11:37:31.864Z,20.00
2019-01-09T11:38:31.843Z,18.30
2019-01-09T11:39:31.836Z,18.40
2019-01-09T11:40:31.818Z,15.90
2019-01-09T11:41:31.921Z,23.40
2019-01-09T11:42:31.850Z,21.80
2019-01-09T11:43:31.791Z,17.70
2019-01-09T11:44:31.827Z,26.90
2019-01-09T11:45:31.764Z,24.50
2019-01-09T11:46:31.766Z,20.50
2019-01-09T11:47:31.849Z,22.20
2019-01-09T11:48:31.730Z,16.30
2019-01-09T11:49:31.794Z,19.80
2019-01-09T11:50:31.713Z,23.30
2019-01-09T11:51:31.696Z,16.80
2019-01-09T11:52:31.691Z,19.90
2019-01-09T11:53:31.715Z,20.00
2019-01-09T11:54:31.663Z,21.30
2019-01-09T11:55:31.664Z,15.20
2019-01-09T11:56:31.648Z,17.10
2019-01-09T11:57:31.632Z,16.90
2019-01-09T11:58:31.632Z,16.50
2019-01-09T11:59:31.658Z,18.40
2019-01-09T12:00:31.609Z,19.50
2019-01-09T12:01:31.583Z,14.10
2019-01-09T12:02:31.579Z,16.20
2019-01-09T12:03:31.579Z,18.40
2019-01-09T12:04:31.786Z,17.10
2019-01-09T12:05:31.708Z,17.10
2019-01-09T12:06:31.553Z,14.00
2019-01-09T12:07:31.532Z,13.70
2019-01-09T12:08:31.618Z,16.60
2019-01-09T12:09:31.507Z,15.20
2019-01-09T12:10:31.654Z,10.80
2019-01-09T12:11:31.537Z,12.10
2019-01-09T12:12:31.470Z,17.00
2019-01-09T12:13:31.538Z,10.30
2019-01-09T12:14:31.506Z,17.20
2019-01-09T12:15:31.433Z,10.30
2019-01-09T12:16:31.473Z,10.50
2019-01-09T12:17:31.463Z,13.70
2019-01-09T12:18:33.481Z,18.90
2019-01-09T12:19:31.390Z,11.00
2019-01-09T12:20:31.381Z,10.90
2019-01-09T12:21:31.369Z,14.50
2019-01-09T12:22:31.358Z,12.80
2019-01-09T12:23:31.937Z,10.50
2019-01-09T12:24:31.386Z,11.80
2019-01-09T12:25:31.333Z,10.10
2019-01-09T12:26:31.314Z,11.10
2019-01-09T12:27:31.302Z,13.60
2019-01-09T12:28:31.334Z,11.50
2019-01-09T12:29:31.340Z,6.40
2019-01-09T12:30:31.265Z,9.40
2019-01-09T12:31:31.280Z,5.50
2019-01-09T12:32:31.333Z,9.10
2019-01-09T12:33:31.243Z,6.00
2019-01-09T12:34:31.222Z,8.60
2019-01-09T12:35:31.271Z,7.70
2019-01-09T12:36:31.259Z,10.30
2019-01-09T12:37:31.208Z,17.20
2019-01-09T12:38:31.186Z,10.50
2019-01-09T12:39:31.178Z,10.20
2019-01-09T12:40:31.165Z,11.50
2019-01-09T12:41:31.155Z,11.40
2019-01-09T12:42:31.181Z,8.90
2019-01-09T12:43:31.131Z,5.40
2019-01-09T12:44:31.116Z,10.70
2019-01-09T12:45:31.161Z,8.20
2019-01-09T12:46:31.105Z,8.00
2019-01-09T12:47:31.088Z,10.70
2019-01-09T12:48:31.115Z,9.40
2019-01-09T12:49:31.091Z,10.30
2019-01-09T12:50:31.058Z,9.80
2019-01-09T12:51:31.038Z,8.70
2019-01-09T12:52:31.034Z,4.80
2019-01-09T12:53:34.127Z,6.80
2019-01-09T12:54:31.060Z,8.90
2019-01-09T12:55:30.996Z,7.30
2019-01-09T12:56:30.983Z,8.90
2019-01-09T12:57:31.026Z,6.30